Time;durP1;ratioP1;P1;durP2;ratioP2;P2;SDS_P1;SDS_P2;PMS_P1;PMS_P2;Temp;Humidity;BMP_temperature;BMP_pressure;BME280_temperature;BME280_humidity;BME280_pressure;Samples;Min_cycle;Max_cycle;Signal;HPM_P1;HPM_P2
2021/05/09 00:02:24;;;;;;;11.93;2.17;;;36.90;11.40;;;;;;5113562;28;20108;-48
2021/05/09 00:04:51;;;;;;;9.40;2.50;;;36.80;11.50;;;;;;5113684;28;20068;-49
2021/05/09 00:07:17;;;;;;;16.52;2.65;;;36.60;11.90;;;;;;5113872;28;20159;-50
2021/05/09 00:09:44;;;;;;;10.30;2.03;;;36.70;12.80;;;;;;5113676;28;20076;-51
2021/05/09 00:12:11;;;;;;;7.90;1.95;;;36.70;12.10;;;;;;5113525;28;20083;-51
2021/05/09 00:14:38;;;;;;;9.55;2.20;;;36.80;11.40;;;;;;5113583;28;20079;-52
2021/05/09 00:20:26;;;;;;;12.02;2.28;;;36.80;11.60;;;;;;5113840;28;20648;-53
2021/05/09 00:22:53;;;;;;;9.00;2.10;;;36.90;12.00;;;;;;5113504;28;20072;-54
2021/05/09 00:25:19;;;;;;;11.35;1.98;;;36.80;11.90;;;;;;5113387;28;20064;-51
2021/05/09 00:27:46;;;;;;;8.30;2.38;;;36.80;11.40;;;;;;5113522;28;20072;-54
2021/05/09 00:30:15;;;;;;;11.05;2.25;;;36.80;11.90;;;;;;5113372;28;20158;-50
2021/05/09 00:36:04;;;;;;;16.83;2.55;;;36.80;11.90;;;;;;5113628;28;20075;-51
2021/05/09 00:38:31;;;;;;;18.67;2.42;;;36.80;12.10;;;;;;5113369;28;20076;-51
2021/05/09 00:40:57;;;;;;;11.70;2.15;;;36.80;12.40;;;;;;5113087;28;20100;-52
2021/05/09 00:43:24;;;;;;;8.93;2.40;;;36.80;11.70;;;;;;5113588;28;20474;-53
2021/05/09 00:45:51;;;;;;;13.93;3.10;;;36.80;12.00;;;;;;5113651;28;20125;-48
2021/05/09 00:48:18;;;;;;;16.75;2.65;;;36.70;11.00;;;;;;5112880;28;20481;-50
2021/05/09 00:50:45;;;;;;;13.10;2.85;;;36.50;10.90;;;;;;5113141;28;20072;-51
2021/05/09 00:53:14;;;;;;;18.40;3.03;;;36.40;11.50;;;;;;5095881;28;20152;-50
2021/05/09 00:55:42;;;;;;;16.30;3.03;;;36.30;11.40;;;;;;5117095;28;20156;-51
2021/05/09 00:58:13;;;;;;;19.98;3.08;;;36.30;11.20;;;;;;5117442;28;20566;-49
2021/05/09 01:00:39;;;;;;;18.10;2.97;;;36.20;11.10;;;;;;5117229;28;20103;-52
2021/05/09 01:03:07;;;;;;;15.43;3.40;;;36.10;11.30;;;;;;5117066;28;20072;-51
2021/05/09 01:05:34;;;;;;;26.17;16.75;;;36.10;12.00;;;;;;5117046;28;20080;-53
2021/05/09 01:08:03;;;;;;;11.32;4.05;;;36.00;12.60;;;;;;5116848;28;20097;-51
2021/05/09 01:10:30;;;;;;;11.32;2.38;;;35.80;12.80;;;;;;5116779;28;20068;-50
2021/05/09 01:16:19;;;;;;;14.82;2.10;;;35.80;13.00;;;;;;5117418;28;20164;-54
2021/05/09 01:18:45;;;;;;;8.73;2.15;;;35.60;12.60;;;;;;5117037;28;20072;-50
2021/05/09 01:21:12;;;;;;;7.50;2.17;;;35.60;13.20;;;;;;5116614;28;20158;-50
2021/05/09 01:23:38;;;;;;;13.38;2.97;;;35.50;13.80;;;;;;5116661;28;20076;-54
2021/05/09 01:26:05;;;;;;;9.73;2.22;;;35.40;13.50;;;;;;5116745;28;20155;-49
2021/05/09 01:28:31;;;;;;;18.05;6.95;;;35.30;13.70;;;;;;5116550;28;20125;-52
2021/05/09 01:30:58;;;;;;;13.85;4.18;;;35.20;14.10;;;;;;5116869;28;20099;-51
2021/05/09 01:33:24;;;;;;;13.07;2.85;;;35.20;15.20;;;;;;5116575;28;20096;-55
2021/05/09 01:35:51;;;;;;;11.70;3.45;;;35.20;13.20;;;;;;5116441;28;20445;-54
2021/05/09 01:38:17;;;;;;;10.63;2.47;;;35.30;14.10;;;;;;5116531;28;20477;-51
2021/05/09 01:40:43;;;;;;;13.40;2.03;;;35.40;14.30;;;;;;5116436;28;20517;-52
2021/05/09 01:43:10;;;;;;;8.88;2.05;;;35.30;14.40;;;;;;5116611;28;20118;-49
2021/05/09 01:45:36;;;;;;;15.30;2.30;;;35.30;14.90;;;;;;5116211;28;20722;-51
2021/05/09 01:48:03;;;;;;;12.35;2.65;;;35.10;14.50;;;;;;5115910;28;20168;-50
2021/05/09 01:50:30;;;;;;;12.48;2.13;;;35.00;14.40;;;;;;5115924;28;20129;-49
2021/05/09 01:52:57;;;;;;;9.50;2.28;;;35.00;15.50;;;;;;5116161;28;20076;-54
2021/05/09 01:55:24;;;;;;;8.00;2.60;;;34.90;15.20;;;;;;5116240;28;20556;-51
2021/05/09 01:57:51;;;;;;;11.63;2.40;;;34.70;15.10;;;;;;5115898;28;20064;-51
2021/05/09 02:00:19;;;;;;;10.02;2.25;;;34.50;15.80;;;;;;5115974;28;20525;-55
2021/05/09 02:02:46;;;;;;;15.00;2.50;;;34.30;15.50;;;;;;5115908;28;20149;-52
2021/05/09 02:05:13;;;;;;;11.88;2.67;;;34.10;15.40;;;;;;5114174;28;20076;-49
2021/05/09 02:07:40;;;;;;;12.25;2.50;;;33.90;15.80;;;;;;5115925;28;20072;-52
2021/05/09 02:10:09;;;;;;;6.35;2.33;;;33.80;15.80;;;;;;5115719;28;20072;-52
2021/05/09 02:12:36;;;;;;;15.32;2.92;;;33.50;15.40;;;;;;5116883;28;20518;-48
2021/05/09 02:15:05;;;;;;;14.05;3.30;;;33.30;15.50;;;;;;5115758;28;20132;-49
2021/05/09 02:20:53;;;;;;;13.73;2.55;;;33.10;15.50;;;;;;5115876;28;20172;-49
2021/05/09 02:23:20;;;;;;;12.25;3.00;;;32.80;15.90;;;;;;5115500;28;20083;-49
2021/05/09 02:25:47;;;;;;;15.10;3.42;;;32.70;16.20;;;;;;5115416;28;20568;-51
2021/05/09 02:28:13;;;;;;;24.58;4.00;;;32.50;16.30;;;;;;5115488;28;20562;-49
2021/05/09 02:30:40;;;;;;;16.65;3.58;;;32.30;16.50;;;;;;5115733;28;20432;-53
2021/05/09 02:33:12;;;;;;;22.55;3.75;;;32.20;16.50;;;;;;5115340;28;20072;-51
2021/05/09 02:35:38;;;;;;;16.02;3.50;;;32.10;16.70;;;;;;5115761;28;20099;-52
2021/05/09 02:38:05;;;;;;;20.33;4.43;;;32.00;16.60;;;;;;5115277;28;20102;-51
2021/05/09 02:40:31;;;;;;;16.40;4.93;;;31.80;16.70;;;;;;5115170;28;20117;-54
2021/05/09 02:42:58;;;;;;;25.73;4.90;;;31.70;17.10;;;;;;5096907;28;20426;-53
2021/05/09 02:45:24;;;;;;;14.27;4.20;;;31.60;17.80;;;;;;5115609;28;20165;-52
2021/05/09 02:47:51;;;;;;;21.13;4.70;;;31.50;17.60;;;;;;5114936;28;20645;-53
2021/05/09 02:50:17;;;;;;;34.30;5.10;;;31.40;17.90;;;;;;5115012;28;20071;-55
2021/05/09 02:52:44;;;;;;;25.75;5.68;;;31.30;18.10;;;;;;5115219;28;20239;-53
2021/05/09 02:55:11;;;;;;;25.17;5.70;;;31.20;18.40;;;;;;5114971;28;20083;-51
2021/05/09 03:00:59;;;;;;;42.97;9.07;;;31.10;19.20;;;;;;5114915;28;20429;-50
2021/05/09 03:03:26;;;;;;;49.10;11.65;;;31.10;19.40;;;;;;5114688;28;20068;-52
2021/05/09 03:05:53;;;;;;;48.05;11.60;;;31.10;19.70;;;;;;5114833;28;20080;-50
2021/05/09 03:08:19;;;;;;;52.90;9.73;;;31.10;19.70;;;;;;5114904;28;20067;-49
2021/05/09 03:10:46;;;;;;;55.45;10.00;;;31.10;19.90;;;;;;5114760;28;20079;-49
2021/05/09 03:13:12;;;;;;;48.67;10.00;;;31.10;20.00;;;;;;5114587;28;20068;-51
2021/05/09 03:15:39;;;;;;;37.63;8.73;;;31.00;19.90;;;;;;5114158;28;20079;-49
2021/05/09 03:18:05;;;;;;;36.78;9.82;;;31.00;20.20;;;;;;5114513;28;20433;-51
2021/05/09 03:20:32;;;;;;;41.38;8.73;;;31.00;20.10;;;;;;5114466;28;20088;-50
2021/05/09 03:22:58;;;;;;;39.50;8.07;;;30.90;20.20;;;;;;5114543;28;20444;-53
2021/05/09 03:25:25;;;;;;;35.60;6.63;;;30.90;20.40;;;;;;5114406;28;20072;-50
2021/05/09 03:27:51;;;;;;;41.17;7.88;;;30.80;20.20;;;;;;5114285;28;20167;-50
2021/05/09 03:33:40;;;;;;;54.05;9.25;;;30.70;20.50;;;;;;5114605;28;20152;-50
2021/05/09 03:36:06;;;;;;;47.78;9.75;;;30.70;20.80;;;;;;5114153;28;20469;-49
2021/05/09 03:38:33;;;;;;;42.67;10.45;;;30.60;20.80;;;;;;5114207;28;20060;-51
2021/05/09 03:41:00;;;;;;;61.70;10.93;;;30.50;20.90;;;;;;5114163;28;20100;-52
2021/05/09 03:43:26;;;;;;;50.70;10.85;;;30.50;20.90;;;;;;5114049;28;20467;-53
2021/05/09 03:45:53;;;;;;;47.80;9.93;;;30.40;21.10;;;;;;5114863;28;20076;-53
2021/05/09 03:48:19;;;;;;;52.38;10.00;;;30.40;21.60;;;;;;5114132;28;20468;-49
2021/05/09 03:50:45;;;;;;;53.53;10.85;;;30.20;22.40;;;;;;5114135;28;20495;-50
2021/05/09 03:53:15;;;;;;;37.47;6.82;;;30.20;23.10;;;;;;5114030;28;20080;-50
2021/05/09 03:55:41;;;;;;;47.97;6.85;;;30.10;24.40;;;;;;5113847;28;20060;-51
2021/05/09 03:58:08;;;;;;;36.20;6.13;;;30.10;24.90;;;;;;5113915;28;20167;-50
2021/05/09 04:00:34;;;;;;;32.15;5.57;;;30.10;25.50;;;;;;5113730;28;20099;-52
2021/05/09 04:03:01;;;;;;;25.30;4.80;;;30.10;26.70;;;;;;5113763;28;20116;-54
2021/05/09 04:05:27;;;;;;;35.55;5.00;;;30.00;26.60;;;;;;5113853;28;20076;-55
2021/05/09 04:07:54;;;;;;;32.42;5.60;;;29.90;26.90;;;;;;5113884;28;20510;-53
2021/05/09 04:10:20;;;;;;;39.95;6.55;;;29.90;27.20;;;;;;5113704;28;20475;-50
2021/05/09 04:12:47;;;;;;;26.67;5.70;;;29.80;27.80;;;;;;5113692;28;20068;-50
2021/05/09 04:15:14;;;;;;;33.70;7.32;;;29.70;28.10;;;;;;5113453;28;20562;-55
2021/05/09 04:17:40;;;;;;;28.67;6.63;;;29.70;28.30;;;;;;5113163;28;20167;-53
2021/05/09 04:23:29;;;;;;;22.33;5.57;;;29.60;29.10;;;;;;5113922;28;20156;-51
2021/05/09 04:25:55;;;;;;;41.67;5.80;;;29.50;29.50;;;;;;5113472;28;20084;-51
2021/05/09 04:28:22;;;;;;;29.27;6.00;;;29.50;29.90;;;;;;5112658;28;20427;-50
2021/05/09 04:30:49;;;;;;;44.00;7.75;;;29.40;30.00;;;;;;5113513;28;20137;-53
2021/05/09 04:33:16;;;;;;;39.72;10.10;;;29.30;30.50;;;;;;5113304;28;20069;-55
2021/05/09 04:35:44;;;;;;;56.47;15.90;;;29.20;30.90;;;;;;5113297;28;20072;-52
2021/05/09 04:38:12;;;;;;;62.35;19.33;;;29.20;31.30;;;;;;5113282;28;20099;-52
2021/05/09 04:40:39;;;;;;;82.38;27.30;;;29.10;31.60;;;;;;5113144;28;20120;-54
2021/05/09 04:43:11;;;;;;;115.63;31.33;;;29.10;32.00;;;;;;5113573;28;20437;-50
2021/05/09 04:45:38;;;;;;;117.78;31.48;;;29.00;32.30;;;;;;5113297;28;20068;-54
2021/05/09 04:48:05;;;;;;;98.25;27.38;;;28.90;32.60;;;;;;5112999;28;20124;-50
2021/05/09 04:50:33;;;;;;;89.93;25.92;;;28.90;32.80;;;;;;5113288;28;20076;-53
2021/05/09 04:53:00;;;;;;;75.75;18.27;;;28.90;32.90;;;;;;5113316;28;20079;-53
2021/05/09 04:55:26;;;;;;;68.60;16.08;;;28.90;33.20;;;;;;5113168;28;20084;-52
2021/05/09 04:57:53;;;;;;;53.58;13.73;;;28.80;33.30;;;;;;5113259;28;20470;-52
2021/05/09 05:00:20;;;;;;;53.83;13.25;;;28.80;33.60;;;;;;5112983;28;20145;-51
2021/05/09 05:02:47;;;;;;;52.63;11.60;;;28.70;33.70;;;;;;5113403;28;20072;-51
2021/05/09 05:05:15;;;;;;;51.90;11.55;;;28.70;33.70;;;;;;5113110;28;20068;-53
2021/05/09 05:07:42;;;;;;;32.40;8.77;;;28.60;33.80;;;;;;5113021;28;20100;-54
2021/05/09 05:10:09;;;;;;;32.58;8.20;;;28.50;34.00;;;;;;5113041;28;20117;-54
2021/05/09 05:15:58;;;;;;;32.72;6.95;;;28.40;34.40;;;;;;5113555;28;20299;-51
2021/05/09 05:18:25;;;;;;;33.65;6.38;;;28.40;34.40;;;;;;5113189;28;20476;-53
2021/05/09 05:24:16;;;;;;;34.95;8.30;;;28.30;34.40;;;;;;5113446;28;20155;-50
2021/05/09 05:26:43;;;;;;;36.40;8.63;;;28.30;34.70;;;;;;5112795;28;20108;-52
2021/05/09 05:29:09;;;;;;;32.00;8.93;;;28.30;35.00;;;;;;5113015;28;20100;-55
2021/05/09 05:31:36;;;;;;;30.02;9.45;;;28.20;35.10;;;;;;5113109;28;20099;-55
2021/05/09 05:34:02;;;;;;;33.72;9.98;;;28.10;35.40;;;;;;5112875;28;20076;-54
2021/05/09 05:36:31;;;;;;;38.97;10.45;;;28.10;35.80;;;;;;5112670;28;20072;-53
2021/05/09 05:39:00;;;;;;;39.42;10.77;;;28.10;36.00;;;;;;5113320;28;20108;-53
2021/05/09 05:41:27;;;;;;;39.95;10.43;;;28.00;36.10;;;;;;5098331;28;20194;-54
2021/05/09 05:43:53;;;;;;;37.33;12.52;;;28.00;36.20;;;;;;5116284;28;20078;-54
2021/05/09 05:46:20;;;;;;;43.05;13.02;;;27.90;36.40;;;;;;5116687;28;20549;-54
2021/05/09 05:48:46;;;;;;;40.67;13.43;;;27.90;36.50;;;;;;5116160;28;20116;-54
2021/05/09 05:51:13;;;;;;;38.45;12.85;;;27.90;36.60;;;;;;5116397;28;20076;-51
2021/05/09 05:53:39;;;;;;;48.83;12.88;;;27.90;36.80;;;;;;5116310;28;20076;-53
2021/05/09 05:56:06;;;;;;;38.00;13.90;;;27.80;36.90;;;;;;5115775;28;20072;-54
2021/05/09 05:58:32;;;;;;;47.13;14.55;;;27.80;37.00;;;;;;5115906;28;20099;-53
2021/05/09 06:00:59;;;;;;;50.22;15.85;;;27.70;37.20;;;;;;5115967;28;20092;-55
2021/05/09 06:03:26;;;;;;;43.35;15.10;;;27.60;37.40;;;;;;5116100;28;20077;-54
2021/05/09 06:05:53;;;;;;;44.45;13.18;;;27.60;37.50;;;;;;5115844;28;20076;-50
2021/05/09 06:08:19;;;;;;;35.88;12.25;;;27.60;37.90;;;;;;5115905;28;20060;-49
2021/05/09 06:10:46;;;;;;;37.85;12.10;;;27.60;38.30;;;;;;5115773;28;20076;-51
2021/05/09 06:13:13;;;;;;;37.15;12.45;;;27.50;38.70;;;;;;5115834;28;20060;-51
2021/05/09 06:15:40;;;;;;;38.80;12.23;;;27.50;39.10;;;;;;5115950;28;20089;-53
2021/05/09 06:18:07;;;;;;;41.30;13.05;;;27.40;39.50;;;;;;5115746;28;20071;-49
2021/05/09 06:20:33;;;;;;;47.75;13.43;;;27.30;40.00;;;;;;5115551;28;20109;-51
2021/05/09 06:23:04;;;;;;;48.88;13.82;;;27.20;40.20;;;;;;5115633;28;20072;-52
2021/05/09 06:25:31;;;;;;;54.30;13.50;;;27.20;40.50;;;;;;5115518;28;20489;-54
2021/05/09 06:27:58;;;;;;;46.08;12.88;;;27.10;40.80;;;;;;5097417;28;20402;-51
2021/05/09 06:30:25;;;;;;;31.10;10.40;;;27.10;41.10;;;;;;5115510;28;20061;-52
2021/05/09 06:32:52;;;;;;;34.15;9.55;;;27.10;41.50;;;;;;5115463;28;20552;-51
2021/05/09 06:35:19;;;;;;;29.60;9.27;;;27.00;41.80;;;;;;5115297;28;20076;-51
2021/05/09 06:37:46;;;;;;;38.03;10.23;;;27.00;42.30;;;;;;5115427;28;20433;-56
2021/05/09 06:40:13;;;;;;;61.05;12.30;;;27.00;42.80;;;;;;5115291;28;20585;-55
2021/05/09 06:42:39;;;;;;;31.30;9.50;;;26.90;43.00;;;;;;5115174;28;20107;-55
2021/05/09 06:45:12;;;;;;;30.42;7.88;;;26.80;43.30;;;;;;5115254;28;20098;-49
2021/05/09 06:47:39;;;;;;;25.83;7.65;;;26.80;43.50;;;;;;5114946;28;20472;-53
2021/05/09 06:50:06;;;;;;;28.92;6.60;;;26.70;43.80;;;;;;5115037;28;20072;-56
2021/05/09 06:52:33;;;;;;;23.88;6.15;;;26.70;43.80;;;;;;5114560;28;20110;-51
2021/05/09 06:55:02;;;;;;;24.33;6.05;;;26.70;43.70;;;;;;5115270;28;20064;-52
2021/05/09 06:57:29;;;;;;;30.35;6.38;;;26.60;43.70;;;;;;5115020;28;20612;-50
2021/05/09 06:59:55;;;;;;;25.60;5.80;;;26.60;43.80;;;;;;5116530;28;20129;-49
2021/05/09 07:02:22;;;;;;;27.90;5.57;;;26.60;43.80;;;;;;5114942;28;20096;-50
2021/05/09 07:04:48;;;;;;;24.23;5.78;;;26.50;43.90;;;;;;5114851;28;20068;-50
2021/05/09 07:07:15;;;;;;;27.88;6.75;;;26.40;44.00;;;;;;5114875;28;20468;-51
2021/05/09 07:09:41;;;;;;;22.52;6.38;;;26.30;44.10;;;;;;5114873;28;20156;-54
2021/05/09 07:12:08;;;;;;;25.27;7.90;;;26.30;44.40;;;;;;5114610;28;20113;-52
2021/05/09 07:14:35;;;;;;;29.98;8.40;;;26.10;44.80;;;;;;5114603;28;20079;-52
2021/05/09 07:17:02;;;;;;;29.15;7.35;;;26.10;45.20;;;;;;5114590;28;20125;-51
2021/05/09 07:19:28;;;;;;;35.95;12.15;;;26.10;45.40;;;;;;5114620;28;20094;-51
2021/05/09 07:21:58;;;;;;;41.03;14.25;;;25.90;46.50;;;;;;5114606;28;20084;-51
2021/05/09 07:24:25;;;;;;;40.35;14.50;;;25.90;47.50;;;;;;5114375;28;20563;-50
2021/05/09 07:26:51;;;;;;;43.50;13.32;;;25.90;48.20;;;;;;5114465;28;20422;-54
2021/05/09 07:29:18;;;;;;;45.05;13.55;;;25.80;48.60;;;;;;5114658;28;20125;-54
2021/05/09 07:31:44;;;;;;;55.83;15.10;;;25.80;49.70;;;;;;5114231;28;20152;-53
2021/05/09 07:34:11;;;;;;;55.17;18.02;;;25.60;51.10;;;;;;5114253;28;20517;-54
2021/05/09 07:36:39;;;;;;;65.35;18.42;;;25.60;53.00;;;;;;5114237;28;20136;-53
2021/05/09 07:39:09;;;;;;;59.55;18.10;;;25.60;55.00;;;;;;5114553;28;20155;-51
2021/05/09 07:41:35;;;;;;;58.30;15.60;;;25.50;55.80;;;;;;5113985;28;20096;-52
2021/05/09 07:44:04;;;;;;;40.25;13.07;;;25.50;56.30;;;;;;5114233;28;20068;-53
2021/05/09 07:46:30;;;;;;;42.70;11.60;;;25.30;57.30;;;;;;5096193;28;20090;-50
2021/05/09 07:48:57;;;;;;;44.45;10.85;;;25.20;59.00;;;;;;5113749;28;20123;-52
2021/05/09 07:51:23;;;;;;;42.13;11.35;;;25.10;59.70;;;;;;5114054;28;20072;-51
2021/05/09 07:53:50;;;;;;;39.25;10.88;;;25.10;60.50;;;;;;5113876;28;20068;-50
2021/05/09 07:56:18;;;;;;;45.00;11.73;;;25.00;61.60;;;;;;5113961;28;20099;-51
2021/05/09 07:58:44;;;;;;;42.03;11.45;;;25.00;62.40;;;;;;5113924;28;20060;-51
2021/05/09 08:04:33;;;;;;;46.53;11.55;;;24.90;63.90;;;;;;5114310;28;20445;-52
2021/05/09 08:06:59;;;;;;;45.65;11.95;;;24.80;66.10;;;;;;5113963;28;20072;-51
2021/05/09 08:09:26;;;;;;;39.83;12.02;;;24.70;67.90;;;;;;5113753;28;20076;-50
2021/05/09 08:11:52;;;;;;;42.85;11.35;;;24.70;69.80;;;;;;5113612;28;20121;-49
2021/05/09 08:14:18;;;;;;;35.08;10.95;;;24.60;71.50;;;;;;5113591;28;20084;-52
2021/05/09 08:16:45;;;;;;;30.45;9.40;;;24.60;72.10;;;;;;5113743;28;20079;-52
2021/05/09 08:19:11;;;;;;;33.63;9.02;;;24.60;73.50;;;;;;5113595;28;20163;-50
2021/05/09 08:21:39;;;;;;;30.25;9.38;;;24.60;74.10;;;;;;5113394;28;20104;-51
2021/05/09 08:24:06;;;;;;;43.15;9.68;;;24.60;74.60;;;;;;5113380;28;20118;-50
2021/05/09 08:26:33;;;;;;;35.03;10.18;;;24.50;76.30;;;;;;5113454;28;20087;-54
2021/05/09 08:28:59;;;;;;;38.70;10.85;;;24.50;78.10;;;;;;5113531;28;20071;-53
2021/05/09 08:31:26;;;;;;;38.60;11.43;;;24.50;78.40;;;;;;5113518;28;20432;-53
2021/05/09 08:33:53;;;;;;;34.35;10.25;;;24.40;79.90;;;;;;5113447;28;20526;-50
2021/05/09 08:36:20;;;;;;;36.10;9.18;;;24.40;81.90;;;;;;5113281;28;20526;-50
2021/05/09 08:38:46;;;;;;;42.15;10.98;;;24.40;82.60;;;;;;5113325;28;20548;-49
2021/05/09 08:41:12;;;;;;;38.40;10.75;;;24.40;84.00;;;;;;5113351;28;20095;-50
2021/05/09 08:47:03;;;;;;;30.60;7.95;;;24.30;86.30;;;;;;5113462;28;20148;-49
2021/05/09 08:49:35;;;;;;;23.58;6.88;;;24.20;88.30;;;;;;5113028;28;20184;-49
2021/05/09 08:52:02;;;;;;;29.42;6.97;;;24.20;89.80;;;;;;5113202;28;20082;-49
2021/05/09 08:54:28;;;;;;;21.55;6.47;;;24.10;90.10;;;;;;5113174;28;20130;-49
2021/05/09 08:56:55;;;;;;;28.80;7.20;;;24.20;90.30;;;;;;5113142;28;20076;-49
2021/05/09 08:59:21;;;;;;;24.23;6.50;;;24.10;90.60;;;;;;5113129;28;20076;-49
2021/05/09 09:01:47;;;;;;;24.48;7.00;;;24.20;91.20;;;;;;5113194;28;20136;-49
2021/05/09 09:04:14;;;;;;;29.75;6.57;;;24.10;91.10;;;;;;5113238;28;20072;-49
2021/05/09 09:06:48;;;;;;;21.38;5.28;;;24.00;92.00;;;;;;5113084;28;20083;-51
2021/05/09 09:09:25;;;;;;;20.05;5.88;;;24.00;93.30;;;;;;5095027;28;20095;-53
2021/05/09 09:11:54;;;;;;;19.80;5.00;;;23.80;94.10;;;;;;5113263;28;20572;-51
2021/05/09 09:14:27;;;;;;;19.05;5.22;;;23.80;94.60;;;;;;5095774;28;20522;-50
2021/05/09 09:17:13;;;;;;;24.05;6.25;;;23.80;94.20;;;;;;5116899;28;20531;-51
2021/05/09 09:19:59;;;;;;;21.92;6.65;;;23.70;93.40;;;;;;5116700;28;20079;-50
2021/05/09 09:22:25;;;;;;;24.63;6.68;;;23.60;93.70;;;;;;5116815;28;20092;-52
2021/05/09 09:25:09;;;;;;;26.38;6.78;;;23.60;94.20;;;;;;5116726;28;20197;-51
2021/05/09 09:27:42;;;;;;;28.20;6.45;;;23.50;94.60;;;;;;5098501;28;20184;-51
2021/05/09 09:30:10;;;;;;;22.35;5.43;;;23.50;95.10;;;;;;5116628;28;20072;-50
2021/05/09 09:32:37;;;;;;;22.90;5.75;;;23.40;95.30;;;;;;5116464;28;20125;-53
2021/05/09 09:35:04;;;;;;;27.35;8.02;;;23.40;95.50;;;;;;5098462;28;20155;-50
2021/05/09 09:37:35;;;;;;;29.13;6.85;;;23.30;96.30;;;;;;5117001;28;20076;-50
2021/05/09 09:40:03;;;;;;;26.20;7.25;;;23.20;97.20;;;;;;5116539;28;20096;-50
2021/05/09 09:42:37;;;;;;;25.90;8.23;;;23.10;98.30;;;;;;5116535;28;20556;-52
2021/05/09 09:45:19;;;;;;;31.13;8.68;;;23.10;98.90;;;;;;5116403;28;20158;-53
2021/05/09 09:48:00;;;;;;;28.60;8.45;;;23.00;99.70;;;;;;5116217;28;20141;-50
2021/05/09 09:50:46;;;;;;;30.17;8.20;;;22.80;99.90;;;;;;5116395;28;20076;-51
2021/05/09 09:53:32;;;;;;;28.40;7.55;;;22.80;99.90;;;;;;5116567;28;20076;-50
2021/05/09 09:56:17;;;;;;;33.97;7.38;;;22.70;99.90;;;;;;5116407;28;20417;-51
2021/05/09 09:59:05;;;;;;;30.45;6.95;;;22.60;99.90;;;;;;5116230;28;20080;-52
2021/05/09 10:01:32;;;;;;;;;;;22.40;99.90;;;;;;5116488;28;20100;-52
2021/05/09 10:04:04;;;;;;;25.88;6.63;;;22.50;99.90;;;;;;5116162;28;19978;-52
2021/05/09 10:06:31;;;;;;;29.00;6.68;;;22.30;99.90;;;;;;5116119;28;20213;-52
2021/05/09 10:08:58;;;;;;;27.02;6.10;;;22.30;99.90;;;;;;5115899;28;20635;-50
2021/05/09 10:11:30;;;;;;;21.30;5.68;;;22.20;98.90;;;;;;5115603;28;20163;-52
2021/05/09 10:13:58;;;;;;;26.05;5.35;;;22.20;99.30;;;;;;5115584;28;20076;-52
2021/05/09 10:16:27;;;;;;;23.88;6.13;;;22.40;99.90;;;;;;5115961;28;20076;-52
2021/05/09 10:19:02;;;;;;;19.92;6.05;;;22.10;99.00;;;;;;5115807;28;20620;-52
2021/05/09 10:21:30;;;;;;;22.20;5.45;;;22.10;99.20;;;;;;5115626;28;20099;-52
2021/05/09 10:27:18;;;;;;;19.40;5.72;;;22.00;99.30;;;;;;5114568;28;20071;-52
2021/05/09 10:29:46;;;;;;;17.98;5.45;;;22.00;98.90;;;;;;5115632;28;20112;-50
2021/05/09 10:32:21;;;;;;;25.30;5.45;;;22.00;99.20;;;;;;5115445;28;20072;-50
2021/05/09 10:34:57;;;;;;;27.05;6.15;;;21.80;99.90;;;;;;5115441;28;20023;-53
2021/05/09 10:37:35;;;;;;;25.52;6.18;;;21.90;99.90;;;;;;5115787;28;20425;-51
2021/05/09 10:40:30;;;;;;;28.17;6.57;;;21.90;99.90;;;;;;5115201;28;20410;-50
2021/05/09 10:43:03;;;;;;;14.35;5.05;;;21.90;99.20;;;;;;5115544;28;20510;-51
2021/05/09 10:45:36;;;;;;;26.75;6.25;;;21.90;99.20;;;;;;5115480;28;20143;-51
2021/05/09 10:48:33;;;;;;;28.38;6.38;;;21.90;99.40;;;;;;5114924;28;20131;-50
2021/05/09 10:54:24;;;;;;;27.38;6.88;;;21.90;99.90;;;;;;5115275;28;20071;-52
2021/05/09 10:56:53;;;;;;;25.40;6.85;;;21.90;99.90;;;;;;5114987;28;20079;-50
2021/05/09 10:59:20;;;;;;;27.85;7.88;;;21.90;99.90;;;;;;5114891;28;20072;-52
2021/05/09 11:02:09;;;;;;;28.73;6.20;;;21.90;99.90;;;;;;5114795;28;20241;-50
2021/05/09 11:04:48;;;;;;;23.75;6.20;;;21.90;99.90;;;;;;5115022;28;20526;-54
2021/05/09 11:07:43;;;;;;;22.95;6.32;;;21.90;99.90;;;;;;5114809;28;20071;-54
2021/05/09 11:10:31;;;;;;;27.77;6.10;;;21.90;99.90;;;;;;5115180;28;20076;-50
2021/05/09 11:13:05;;;;;;;26.80;6.68;;;21.80;99.90;;;;;;5114901;28;20080;-49
2021/05/09 11:15:31;;;;;;;20.67;5.95;;;21.80;99.90;;;;;;5114905;28;20125;-49
2021/05/09 11:17:58;;;;;;;23.58;5.78;;;21.70;99.90;;;;;;5114650;28;20076;-51
2021/05/09 11:20:25;;;;;;;28.80;6.30;;;21.70;99.90;;;;;;5114507;28;20118;-50
2021/05/09 11:23:00;;;;;;;28.35;6.78;;;21.70;99.90;;;;;;5114837;28;20095;-50
2021/05/09 11:25:33;;;;;;;30.58;7.43;;;21.80;99.90;;;;;;5114757;28;20158;-50
2021/05/09 11:31:29;;;;;;;27.38;7.35;;;21.70;99.90;;;;;;5114812;28;20175;-49
2021/05/09 11:33:55;;;;;;;24.20;7.50;;;21.70;99.90;;;;;;5114449;28;20072;-50
2021/05/09 11:36:35;;;;;;;29.77;7.65;;;21.60;99.90;;;;;;5114125;28;20083;-50
2021/05/09 11:39:19;;;;;;;28.95;7.50;;;21.70;99.90;;;;;;5114134;28;20068;-50
2021/05/09 11:41:50;;;;;;;28.77;8.32;;;21.50;99.90;;;;;;5114141;28;20141;-49
2021/05/09 11:44:17;;;;;;;25.05;7.57;;;21.50;99.90;;;;;;5114051;28;20076;-52
2021/05/09 11:46:43;;;;;;;29.55;8.73;;;21.50;99.90;;;;;;5114154;28;20533;-50
2021/05/09 11:49:25;;;;;;;32.25;9.07;;;21.50;99.90;;;;;;5113775;28;20123;-50
2021/05/09 11:51:54;;;;;;;30.75;8.45;;;21.40;99.90;;;;;;5095647;28;20444;-51
2021/05/09 11:54:22;;;;;;;30.63;8.50;;;21.40;99.90;;;;;;5113942;28;20080;-50
2021/05/09 11:56:56;;;;;;;29.23;8.27;;;21.40;99.90;;;;;;5113794;28;20080;-49
2021/05/09 11:59:38;;;;;;;32.10;8.55;;;;;;;;;;5113843;28;20078;-53
2021/05/09 12:02:10;;;;;;;35.30;8.95;;;21.40;99.90;;;;;;5113686;28;20103;-54
2021/05/09 12:04:38;;;;;;;31.90;7.78;;;21.50;99.90;;;;;;5113895;28;20072;-55
2021/05/09 12:07:07;;;;;;;26.73;7.70;;;21.30;99.90;;;;;;5113801;28;20068;-52
2021/05/09 12:09:35;;;;;;;32.22;8.20;;;21.40;99.90;;;;;;5113728;28;20076;-51
2021/05/09 12:12:01;;;;;;;27.67;7.90;;;21.30;99.90;;;;;;5113622;28;20152;-53
2021/05/09 12:14:29;;;;;;;28.38;8.10;;;21.40;99.90;;;;;;5113788;28;20027;-51
2021/05/09 12:16:57;;;;;;;35.40;8.43;;;21.10;99.90;;;;;;5113703;28;20483;-54
2021/05/09 12:19:49;;;;;;;30.77;8.50;;;21.40;99.90;;;;;;5113563;28;20121;-50
2021/05/09 12:22:16;;;;;;;37.75;8.75;;;21.40;99.90;;;;;;5110197;28;20207;-51
2021/05/09 12:24:50;;;;;;;29.52;7.90;;;21.40;99.90;;;;;;5113621;28;20107;-49
2021/05/09 12:27:17;;;;;;;31.55;8.00;;;21.30;99.90;;;;;;5113623;28;20544;-52
2021/05/09 12:29:48;;;;;;;27.45;8.77;;;21.30;99.90;;;;;;5113552;28;20163;-50
2021/05/09 12:32:30;;;;;;;28.17;8.75;;;21.30;99.90;;;;;;5113435;28;20429;-51
2021/05/09 12:35:08;;;;;;;30.50;7.38;;;21.30;99.90;;;;;;5113605;28;20056;-50
2021/05/09 12:37:56;;;;;;;31.08;8.02;;;21.30;99.90;;;;;;5113388;28;20072;-52
2021/05/09 12:40:38;;;;;;;25.05;7.13;;;21.20;99.90;;;;;;5113231;28;20080;-49
2021/05/09 12:43:11;;;;;;;24.08;7.03;;;21.20;99.90;;;;;;5113507;28;20429;-50
2021/05/09 12:45:40;;;;;;;27.00;7.43;;;21.20;99.90;;;;;;5113254;28;20125;-48
2021/05/09 12:48:30;;;;;;;24.50;7.65;;;21.30;99.90;;;;;;5113137;28;20112;-50
2021/05/09 12:51:07;;;;;;;28.42;7.70;;;21.30;99.90;;;;;;5117065;28;20082;-50
2021/05/09 12:53:46;;;;;;;;;;;21.30;99.90;;;;;;5117902;28;20063;-54
2021/05/09 12:56:29;;;;;;;27.23;7.22;;;21.20;99.90;;;;;;5117538;28;19952;-57
2021/05/09 12:59:11;;;;;;;27.95;6.95;;;21.10;99.90;;;;;;5117527;28;20075;-52
2021/05/09 13:01:40;;;;;;;28.40;8.05;;;21.20;99.90;;;;;;5117159;28;20099;-53
2021/05/09 13:04:36;;;;;;;26.90;7.47;;;21.10;99.90;;;;;;5117194;28;20475;-53
2021/05/09 13:07:04;;;;;;;34.63;8.10;;;21.20;99.90;;;;;;5108700;28;20541;-53
2021/05/09 13:09:32;;;;;;;25.02;7.22;;;21.10;99.90;;;;;;5117308;28;20109;-51
2021/05/09 13:12:03;;;;;;;26.33;7.50;;;21.10;99.90;;;;;;5116940;28;20068;-52
2021/05/09 13:14:43;;;;;;;26.55;7.47;;;21.20;99.90;;;;;;5117018;28;20080;-51
2021/05/09 13:17:10;;;;;;;28.42;7.50;;;21.20;99.90;;;;;;5117074;28;20062;-52
2021/05/09 13:19:38;;;;;;;38.58;8.65;;;21.20;99.90;;;;;;5117112;28;20080;-54
2021/05/09 13:22:06;;;;;;;27.75;7.03;;;21.20;99.90;;;;;;5116866;28;20096;-51
2021/05/09 13:24:32;;;;;;;29.92;7.25;;;21.30;99.90;;;;;;5116906;28;20104;-51
2021/05/09 13:26:59;;;;;;;31.02;7.45;;;21.30;99.90;;;;;;5117071;28;20179;-51
2021/05/09 13:29:26;;;;;;;30.58;6.85;;;21.30;99.90;;;;;;5116851;28;20529;-56
2021/05/09 13:31:52;;;;;;;25.05;7.15;;;21.30;99.90;;;;;;5116829;28;20094;-53
2021/05/09 13:34:19;;;;;;;30.15;8.05;;;21.30;99.90;;;;;;5116769;28;20072;-50